Eldridge, IA

1:18 AM CDT on August 29, 2015 (GMT -0500)
West Hickory Street | | Change Station
CLOSE
Current Station
Personal Weather Station
Location: Eldridge, IA
Elevation: 774 ft
Nearby Weather Stations

Elev 774 ft 41.65 °N, 90.59 °W | Updated 6 minutes ago

Rain
Rain
65.5 °F
Feels Like 65.5 °F
N
4.0
Wind Variable Wind from SE
Gusts 12.0 mph

Today
High -- | Low -- °F
--% Chance of Precip.
Yesterday
High -- | Low -- °F
Precip. -- in
6:24 AM 7:40 PM
Full, 100% visible
Pressure 29.99 in
Visibility 10.0 miles
Clouds Overcast 4800 ft
Dew Point 64 °F
Humidity 93%
Rainfall 0.07 in
Snow Depth Not available.
UV 0 out of 12
Pollen 8.20 out of 12
Air Quality Not available.
Flu Activity Not available.
METAR KDVN 290552Z AUTO 12008KT 10SM -RA OVC048 19/17 A3000 RMK AO2 SLP156 P0005 60026 T01890172 10211 20183 402220144 56011
Pressure 29.99 in
Visibility 10.0 miles
Clouds Overcast 4800 ft
Dew Point 64 °F
Humidity 93%
Rainfall 0.07 in
Snow Depth Not available.
UV 0 out of 12
Pollen 8.20 out of 12
Air Quality Not available.
Flu Activity Not available.
METAR KDVN 290552Z AUTO 12008KT 10SM -RA OVC048 19/17 A3000 RMK AO2 SLP156 P0005 60026 T01890172 10211 20183 402220144 56011

10-Day Weather Forecast

×

Almanac

Astronomy

Aug. 29, 2015 Rise Set
Actual Time
Civil Twilight
Nautical Twilight
Astronomical Twilight
Moon
Length of Visible Light
Length of Day
Tomorrow will be .
, % of the Moon is Illuminated

Today's Extremes

State Highs State Lows

Community

WunderPhotos

Upload Photos

1,850,622 photos uploaded!

WunderBlogs® & News

Nearby

Air Quality

  Air Quality AQ Index Pollutant
Not available.

Snow Depth

Station Depth Elevation

Earthquake Activity

City Distance Mag. Time & Date
Minimum magnitude displayed is 2.5.

Coastal Water Temperatures

Place Temperature

Stations

Nearby Weather Stations

Station Location Temp. Windchill Dew Point Humidity Wind Precip. Elev Updated Type